Time;durP1;ratioP1;P1;durP2;ratioP2;P2;SDS_P1;SDS_P2;PMS_P1;PMS_P2;Temp;Humidity;BMP_temperature;BMP_pressure;BME280_temperature;BME280_humidity;BME280_pressure;Samples;Min_cycle;Max_cycle;Signal;HPM_P1;HPM_P2
2023/10/22 00:01:24;;;;;;;11.40;5.10;;;;;;;21.48;56.19;94741.38;5072827;28;20436;-78
2023/10/22 00:03:51;;;;;;;6.93;4.90;;;;;;;21.43;57.17;94749.16;5072766;28;20445;-78
2023/10/22 00:06:18;;;;;;;11.70;5.13;;;;;;;21.33;56.55;94740.69;5072637;28;20780;-77
2023/10/22 00:08:45;;;;;;;6.93;4.13;;;;;;;21.37;55.80;94728.56;5072825;28;20449;-77
2023/10/22 00:11:12;;;;;;;9.80;4.77;;;;;;;21.44;55.10;94723.28;5072681;28;20437;-77
2023/10/22 00:13:39;;;;;;;8.83;5.33;;;;;;;21.53;55.64;94717.53;5073122;28;20451;-78
2023/10/22 00:16:07;;;;;;;6.73;4.60;;;;;;;21.61;56.46;94720.03;5072640;28;20490;-78
2023/10/22 00:18:34;;;;;;;12.37;4.77;;;;;;;21.68;56.27;94724.53;5072763;28;20492;-77
2023/10/22 00:21:00;;;;;;;9.60;5.50;;;;;;;21.71;56.17;94721.50;5072762;28;20500;-78
2023/10/22 00:23:27;;;;;;;8.50;4.10;;;;;;;21.74;56.21;94715.75;5072464;28;20452;-78
2023/10/22 00:25:54;;;;;;;9.47;4.80;;;;;;;21.73;56.63;94700.75;5072468;28;20878;-77
2023/10/22 00:28:21;;;;;;;21.33;5.80;;;;;;;21.59;57.59;94687.34;5072475;28;20939;-78
2023/10/22 00:30:48;;;;;;;10.53;4.80;;;;;;;21.57;58.01;94685.91;5072180;28;20445;-78
2023/10/22 00:33:16;;;;;;;9.40;5.00;;;;;;;21.54;58.07;94687.16;5072642;28;20446;-78
2023/10/22 00:35:43;;;;;;;8.67;4.20;;;;;;;21.65;58.64;94683.88;5037196;28;20443;-78
2023/10/22 00:38:10;;;;;;;10.03;5.50;;;;;;;21.74;57.28;94689.03;5072243;28;20446;-77
2023/10/22 00:40:37;;;;;;;17.87;5.67;;;;;;;21.77;56.90;94701.97;5072285;28;20451;-77
2023/10/22 00:43:06;;;;;;;16.80;5.13;;;;;;;21.77;56.29;94707.31;5072281;28;20442;-77
2023/10/22 00:45:38;;;;;;;8.70;5.20;;;;;;;21.78;56.51;94709.78;5072455;28;20459;-78
2023/10/22 00:48:05;;;;;;;8.30;3.70;;;;;;;21.74;56.01;94703.22;5072377;28;20526;-78
2023/10/22 00:50:33;;;;;;;11.77;4.20;;;;;;;21.85;55.61;94688.44;5072178;28;20953;-78
2023/10/22 00:53:00;;;;;;;12.50;4.93;;;;;;;21.90;55.35;94704.66;5072269;28;20444;-77
2023/10/22 00:55:28;;;;;;;12.57;5.13;;;;;;;21.91;55.54;94688.41;5072073;28;20449;-77
2023/10/22 00:57:55;;;;;;;12.73;4.97;;;;;;;21.83;55.16;94693.97;5036809;28;20448;-77
2023/10/22 01:00:22;;;;;;;12.10;5.00;;;;;;;21.93;56.06;94688.22;5071969;28;20487;-77
2023/10/22 01:02:49;;;;;;;11.30;4.37;;;;;;;21.90;54.80;94697.47;5072065;28;20443;-77
2023/10/22 01:05:15;;;;;;;14.27;4.57;;;;;;;21.89;54.67;94708.34;5072393;28;20439;-77
2023/10/22 01:07:44;;;;;;;13.03;4.60;;;;;;;21.93;54.87;94704.25;5072178;28;20446;-78
2023/10/22 01:10:10;;;;;;;17.17;4.30;;;;;;;21.92;54.10;94710.63;5071913;28;20818;-77
2023/10/22 01:12:38;;;;;;;7.47;4.23;;;;;;;21.97;57.43;94713.50;5072388;28;20505;-77
2023/10/22 01:15:06;;;;;;;11.87;4.37;;;;;;;21.96;55.33;94701.97;5072044;28;21691;-77
2023/10/22 01:17:33;;;;;;;7.67;3.90;;;;;;;21.95;56.78;94702.19;5037014;28;20450;-77
2023/10/22 01:20:00;;;;;;;10.57;4.17;;;;;;;21.91;56.88;94707.13;5072117;28;20514;-77
2023/10/22 01:22:27;;;;;;;10.63;4.13;;;;;;;21.82;56.39;94699.53;5072061;28;20446;-78
2023/10/22 01:24:55;;;;;;;12.40;4.70;;;;;;;21.72;56.59;94696.44;5075582;28;20466;-77
2023/10/22 01:27:22;;;;;;;9.00;5.00;;;;;;;21.72;57.39;94699.09;5075562;28;20478;-78
2023/10/22 01:29:48;;;;;;;9.37;5.07;;;;;;;21.60;56.69;94698.84;5075558;28;20450;-77
2023/10/22 01:32:15;;;;;;;9.80;4.50;;;;;;;21.58;58.30;94693.72;5075415;28;20453;-77
2023/10/22 01:34:42;;;;;;;17.70;4.80;;;;;;;21.57;58.02;94691.25;5075303;28;20944;-77
2023/10/22 01:37:09;;;;;;;7.33;4.43;;;;;;;21.61;59.27;94687.16;5075328;28;20905;-77
2023/10/22 01:39:36;;;;;;;10.17;4.77;;;;;;;21.56;58.24;94690.44;5075223;28;20497;-77
2023/10/22 01:42:05;;;;;;;12.97;4.93;;;;;;;21.57;58.16;94692.06;5075305;28;20433;-77
2023/10/22 01:44:32;;;;;;;7.10;4.77;;;;;;;21.59;58.67;94697.22;5075365;28;20446;-77
2023/10/22 01:46:58;;;;;;;12.20;4.40;;;;;;;21.56;59.53;94697.63;5075303;28;20447;-77
2023/10/22 01:49:25;;;;;;;11.43;4.37;;;;;;;21.42;59.16;94693.28;5075333;28;20447;-77
2023/10/22 01:51:52;;;;;;;18.10;5.77;;;;;;;21.40;59.03;94685.47;5074934;28;20437;-77
2023/10/22 01:54:19;;;;;;;10.80;5.03;;;;;;;21.11;60.51;94691.09;5074950;28;20452;-77
2023/10/22 01:56:46;;;;;;;10.53;4.97;;;;;;;21.14;60.52;94696.88;5075212;28;20908;-77
2023/10/22 01:59:14;;;;;;;8.93;4.90;;;;;;;21.15;60.56;94693.16;5074719;28;20825;-77
2023/10/22 02:01:42;;;;;;;10.00;4.50;;;;;;;20.90;61.41;94682.19;5074787;28;21001;-78
2023/10/22 02:04:09;;;;;;;11.10;5.00;;;;;;;20.92;61.78;94687.31;5074797;28;20434;-77
2023/10/22 02:06:35;;;;;;;9.13;5.20;;;;;;;20.90;62.17;94695.53;5074609;28;20445;-77
2023/10/22 02:09:02;;;;;;;10.87;4.90;;;;;;;20.87;61.79;94692.44;5074386;28;20456;-77
2023/10/22 02:11:30;;;;;;;7.93;4.63;;;;;;;20.83;61.42;94691.19;5074496;28;20475;-77
2023/10/22 02:13:57;;;;;;;10.37;4.67;;;;;;;20.77;61.35;94695.44;5074640;28;21056;-77
2023/10/22 02:16:25;;;;;;;12.97;6.20;;;;;;;20.70;60.44;94687.41;5074373;28;20518;-76
2023/10/22 02:18:52;;;;;;;16.87;5.43;;;;;;;20.71;60.69;94690.91;5074381;28;20447;-76
2023/10/22 02:21:21;;;;;;;7.43;4.97;;;;;;;20.66;61.03;94694.16;5074465;28;20837;-76
2023/10/22 02:23:48;;;;;;;6.60;4.63;;;;;;;20.63;61.09;94693.75;5074301;28;20483;-78
2023/10/22 02:26:15;;;;;;;16.77;5.93;;;;;;;20.56;60.91;94687.56;5074612;28;20444;-77
2023/10/22 02:28:41;;;;;;;11.17;4.87;;;;;;;20.57;60.60;94695.34;5074290;28;20443;-77
2023/10/22 02:31:10;;;;;;;11.87;5.00;;;;;;;20.48;61.85;94687.69;5074287;28;20449;-77
2023/10/22 02:33:39;;;;;;;10.60;5.17;;;;;;;20.50;61.56;94683.81;5074106;28;20501;-77
2023/10/22 02:36:06;;;;;;;11.63;5.53;;;;;;;20.46;60.28;94669.22;5074225;28;20499;-77
2023/10/22 02:38:36;;;;;;;11.63;4.70;;;;;;;20.35;59.60;94669.75;5074347;28;20459;-77
2023/10/22 02:41:03;;;;;;;11.47;5.40;;;;;;;20.15;57.68;94663.44;5074006;28;20484;-77
2023/10/22 02:43:30;;;;;;;13.67;5.20;;;;;;;20.21;58.11;94660.00;5074022;28;20487;-77
2023/10/22 02:45:57;;;;;;;13.10;5.00;;;;;;;20.27;58.64;94651.25;5073848;28;20448;-77
2023/10/22 02:48:25;;;;;;;14.00;5.13;;;;;;;20.32;57.89;94652.31;5073858;28;20792;-77
2023/10/22 02:50:53;;;;;;;8.10;4.30;;;;;;;20.38;57.12;94670.19;5073925;28;20456;-77
2023/10/22 02:53:20;;;;;;;15.13;6.20;;;;;;;20.42;57.84;94665.31;5074093;28;20436;-77
2023/10/22 02:55:47;;;;;;;11.77;4.57;;;;;;;20.43;57.05;94664.28;5073876;28;20459;-77
2023/10/22 02:58:14;;;;;;;8.47;5.23;;;;;;;20.39;58.81;94671.81;5038831;28;21000;-77
2023/10/22 03:00:41;;;;;;;10.97;5.63;;;;;;;20.45;58.25;94670.25;5073470;28;20488;-77
2023/10/22 03:03:08;;;;;;;16.40;4.50;;;;;;;20.46;58.21;94671.88;5073558;28;20930;-76
2023/10/22 03:05:36;;;;;;;13.13;5.40;;;;;;;20.41;57.39;94655.66;5073805;28;20437;-77
2023/10/22 03:08:04;;;;;;;10.73;4.83;;;;;;;20.40;58.82;94657.50;5073569;28;20454;-77
2023/10/22 03:10:32;;;;;;;10.23;4.37;;;;;;;20.40;58.65;94662.03;5073618;28;20939;-77
2023/10/22 03:12:59;;;;;;;15.50;4.90;;;;;;;20.42;58.18;94668.78;5073305;28;20441;-77
2023/10/22 03:15:27;;;;;;;15.30;5.37;;;;;;;20.44;59.10;94659.78;5073352;28;20517;-77
2023/10/22 03:17:56;;;;;;;10.13;5.60;;;;;;;20.39;58.11;94660.34;5073678;28;20445;-77
2023/10/22 03:20:23;;;;;;;12.83;5.43;;;;;;;20.39;58.32;94665.66;5038771;28;20484;-77
2023/10/22 03:22:50;;;;;;;10.00;4.27;;;;;;;20.41;58.57;94653.00;5073583;28;20467;-77
2023/10/22 03:25:19;;;;;;;12.80;5.27;;;;;;;20.39;58.71;94649.69;5073154;28;21009;-77
2023/10/22 03:27:45;;;;;;;9.20;5.13;;;;;;;20.41;58.58;94653.00;5073198;28;20447;-77
2023/10/22 03:30:13;;;;;;;12.37;5.10;;;;;;;20.40;58.67;94662.84;5073417;28;20444;-77
2023/10/22 03:32:40;;;;;;;14.40;5.87;;;;;;;20.39;59.29;94660.34;5073183;28;20524;-77
2023/10/22 03:35:08;;;;;;;10.73;5.97;;;;;;;20.36;59.07;94660.72;5073197;28;20492;-77
2023/10/22 03:37:34;;;;;;;14.10;5.83;;;;;;;20.31;60.06;94658.66;5038114;28;21159;-77
2023/10/22 03:40:02;;;;;;;12.67;6.73;;;;;;;20.25;60.89;94645.31;5073049;28;20486;-77
2023/10/22 03:42:30;;;;;;;13.33;5.10;;;;;;;20.23;61.97;94653.47;5037720;28;20493;-77
2023/10/22 03:44:57;;;;;;;12.50;5.50;;;;;;;20.19;61.26;94652.22;5073143;28;20444;-77
2023/10/22 03:47:23;;;;;;;8.73;4.70;;;;;;;20.17;60.17;94651.56;5072886;28;20438;-77
2023/10/22 03:49:50;;;;;;;12.90;6.37;;;;;;;20.13;60.47;94639.66;5073310;28;20461;-77
2023/10/22 03:52:17;;;;;;;9.77;5.77;;;;;;;20.12;60.52;94646.00;5072944;28;20442;-77
2023/10/22 03:54:44;;;;;;;14.13;5.70;;;;;;;20.02;61.11;94642.88;5072851;28;20450;-77
2023/10/22 03:57:11;;;;;;;13.20;5.80;;;;;;;20.02;61.25;94648.22;5054062;28;20885;-77
2023/10/22 03:59:39;;;;;;;13.57;5.90;;;;;;;19.95;61.95;94655.31;5072754;28;20987;-77
2023/10/22 04:02:05;;;;;;;10.07;7.27;;;;;;;19.86;61.27;94643.16;5072898;28;20487;-77
2023/10/22 04:04:32;;;;;;;10.43;5.27;;;;;;;19.82;62.20;94645.38;5072759;28;20439;-77
2023/10/22 04:06:59;;;;;;;12.83;5.80;;;;;;;19.84;64.07;94643.34;5072833;28;20459;-77
2023/10/22 04:09:26;;;;;;;14.07;5.40;;;;;;;19.72;63.08;94645.72;5072668;28;20445;-77
2023/10/22 04:11:53;;;;;;;12.07;6.00;;;;;;;19.78;61.82;94652.13;5072780;28;20441;-77
2023/10/22 04:14:19;;;;;;;12.80;5.23;;;;;;;19.76;62.92;94654.16;5072559;28;20469;-79
2023/10/22 04:16:50;;;;;;;14.23;5.90;;;;;;;19.72;62.90;94656.38;5073119;28;20445;-78
2023/10/22 04:19:17;;;;;;;13.03;5.30;;;;;;;19.67;62.07;94644.66;5072894;28;20451;-77
2023/10/22 04:21:43;;;;;;;12.20;5.30;;;;;;;19.56;62.34;94645.16;5072668;28;20493;-77
2023/10/22 04:24:10;;;;;;;10.63;4.80;;;;;;;19.52;62.37;94647.34;5072450;28;20921;-77
2023/10/22 04:26:37;;;;;;;11.47;5.27;;;;;;;19.54;64.00;94639.19;5053226;28;20861;-77
2023/10/22 04:29:04;;;;;;;11.53;4.70;;;;;;;19.55;63.67;94640.84;5072671;28;20454;-76
2023/10/22 04:31:31;;;;;;;13.27;6.07;;;;;;;19.54;63.64;94656.00;5072849;28;20450;-77
2023/10/22 04:33:59;;;;;;;10.17;4.80;;;;;;;19.51;63.32;94669.66;5072451;28;20447;-76
2023/10/22 04:36:26;;;;;;;14.73;5.67;;;;;;;19.48;63.15;94672.69;5072661;28;20451;-78
2023/10/22 04:38:53;;;;;;;13.50;5.27;;;;;;;19.45;62.93;94678.41;5072769;28;20981;-79
2023/10/22 04:41:20;;;;;;;23.23;5.57;;;;;;;19.37;63.04;94682.00;5071455;28;20483;-79
2023/10/22 04:43:47;;;;;;;10.73;5.00;;;;;;;19.28;63.42;94687.63;5070300;28;20930;-79
2023/10/22 04:46:14;;;;;;;11.77;5.07;;;;;;;19.27;63.87;94688.63;5037118;28;20478;-76
2023/10/22 04:48:41;;;;;;;11.07;5.87;;;;;;;19.32;64.73;94692.38;5072098;28;20508;-79
2023/10/22 04:51:09;;;;;;;11.70;5.70;;;;;;;19.38;63.96;94688.97;5072484;28;20442;-78
2023/10/22 04:53:36;;;;;;;7.90;5.73;;;;;;;19.27;64.38;94694.78;5072679;28;20512;-79
2023/10/22 04:56:03;;;;;;;11.70;5.90;;;;;;;19.31;64.79;94696.06;5072805;28;20446;-79
2023/10/22 04:58:32;;;;;;;9.23;5.27;;;;;;;19.34;65.39;94708.16;5074684;28;20443;-78
2023/10/22 05:00:59;;;;;;;14.60;6.27;;;;;;;19.36;64.87;94714.09;5073976;28;20611;-77
2023/10/22 05:03:26;;;;;;;11.67;5.93;;;;;;;19.37;64.26;94729.91;5076250;28;20496;-77
2023/10/22 05:05:54;;;;;;;12.17;6.37;;;;;;;19.32;64.35;94729.63;5076093;28;20454;-77
2023/10/22 05:08:23;;;;;;;17.93;5.80;;;;;;;19.36;63.79;94732.72;5076084;28;20444;-78
2023/10/22 05:10:50;;;;;;;12.70;5.47;;;;;;;19.41;62.80;94730.34;5076089;28;20456;-77
2023/10/22 05:13:17;;;;;;;11.50;5.30;;;;;;;19.45;62.99;94731.63;5076112;28;20449;-77
2023/10/22 05:15:51;;;;;;;9.27;4.93;;;;;;;19.51;63.08;94725.53;5076072;28;20521;-77
2023/10/22 05:18:18;;;;;;;15.20;5.03;;;;;;;19.57;63.27;94740.78;5075794;28;21347;-77
2023/10/22 05:20:44;;;;;;;13.43;6.00;;;;;;;19.60;62.54;94735.09;5075774;28;20492;-78
2023/10/22 05:23:11;;;;;;;17.03;5.63;;;;;;;19.60;63.39;94737.75;5075830;28;20443;-77
2023/10/22 05:25:39;;;;;;;24.37;8.07;;;;;;;19.67;63.89;94741.31;5075790;28;20460;-78
2023/10/22 05:28:06;;;;;;;10.33;5.23;;;;;;;19.73;62.77;94739.72;5040339;28;20465;-76
2023/10/22 05:30:33;;;;;;;13.60;5.37;;;;;;;19.80;63.04;94729.97;5075441;28;20450;-78
2023/10/22 05:33:01;;;;;;;21.57;6.30;;;;;;;19.77;62.29;94728.50;5075596;28;20466;-77
2023/10/22 05:35:27;;;;;;;9.93;6.60;;;;;;;19.80;62.03;94720.13;5075651;28;20528;-76
2023/10/22 05:37:54;;;;;;;12.53;6.00;;;;;;;19.73;61.85;94716.59;5040201;28;20451;-78
2023/10/22 05:40:21;;;;;;;15.67;5.50;;;;;;;19.32;63.86;94721.66;5074595;28;20487;-77
2023/10/22 05:42:49;;;;;;;20.10;6.70;;;;;;;19.42;65.45;94726.69;5075456;28;20442;-77
2023/10/22 05:45:16;;;;;;;12.30;6.07;;;;;;;19.38;64.78;94728.06;5074907;28;20478;-78
2023/10/22 05:47:43;;;;;;;31.60;6.73;;;;;;;19.24;65.15;94742.22;5074102;28;20996;-78
2023/10/22 05:50:11;;;;;;;22.87;6.83;;;;;;;19.19;65.92;94745.44;5074991;28;20442;-77
2023/10/22 05:52:38;;;;;;;18.63;6.20;;;;;;;19.27;66.75;94755.16;5072834;28;20447;-77
2023/10/22 05:55:06;;;;;;;10.70;5.70;;;;;;;19.29;66.78;94742.47;5074699;28;20995;-77
2023/10/22 05:57:33;;;;;;;18.13;5.90;;;;;;;19.29;66.42;94747.81;5074810;28;20525;-78
2023/10/22 06:00:02;;;;;;;16.83;6.03;;;;;;;19.22;65.88;94744.25;5074639;28;20438;-78
2023/10/22 06:02:29;;;;;;;21.77;6.57;;;;;;;19.26;66.77;94750.84;5072647;28;20994;-78
2023/10/22 06:04:56;;;;;;;16.57;7.77;;;;;;;19.29;66.70;94743.31;5074557;28;20522;-78
2023/10/22 06:07:23;;;;;;;10.40;5.60;;;;;;;19.25;66.96;94757.19;5075191;28;20442;-78
2023/10/22 06:09:50;;;;;;;15.33;6.73;;;;;;;19.31;67.68;94759.09;5074014;28;20498;-78
2023/10/22 06:12:16;;;;;;;19.23;7.00;;;;;;;19.31;67.87;94783.03;5074398;28;20451;-78
2023/10/22 06:14:44;;;;;;;15.77;6.10;;;;;;;19.28;66.72;94791.38;5074259;28;20481;-78
2023/10/22 06:17:12;;;;;;;13.53;6.07;;;;;;;19.32;65.85;94801.47;5074870;28;20466;-78
2023/10/22 06:19:39;;;;;;;18.97;6.53;;;;;;;19.34;64.90;94809.25;5074438;28;20469;-78
2023/10/22 06:22:06;;;;;;;15.50;6.87;;;;;;;19.36;66.23;94812.56;5074575;28;20484;-79
2023/10/22 06:24:34;;;;;;;10.90;5.70;;;;;;;19.39;65.21;94849.47;5074628;28;20523;-78
2023/10/22 06:27:01;;;;;;;12.87;5.83;;;;;;;19.35;65.01;94843.66;5073672;28;20456;-78
2023/10/22 06:29:28;;;;;;;19.37;5.57;;;;;;;19.30;64.63;94842.56;5074592;28;20803;-80
2023/10/22 06:31:55;;;;;;;16.30;4.93;;;;;;;19.34;65.73;94836.69;5074691;28;20459;-79
2023/10/22 06:34:23;;;;;;;14.23;6.70;;;;;;;19.22;66.28;94816.91;5073858;28;20529;-78
2023/10/22 06:36:50;;;;;;;19.53;6.63;;;;;;;19.07;69.29;94830.19;5073939;28;20484;-78
2023/10/22 06:39:17;;;;;;;17.50;7.40;;;;;;;19.09;68.59;94806.94;5073405;28;20572;-80
2023/10/22 06:41:43;;;;;;;21.30;7.27;;;;;;;18.80;69.02;94807.75;5074163;28;20493;-78
2023/10/22 06:44:10;;;;;;;25.83;6.73;;;;;;;18.75;69.41;94790.66;5074117;28;20453;-78
2023/10/22 06:46:37;;;;;;;16.80;6.70;;;;;;;18.43;69.48;94778.50;5074714;28;20452;-77
2023/10/22 06:49:05;;;;;;;22.00;7.13;;;;;;;18.45;70.09;94787.94;5074356;28;20456;-78
2023/10/22 06:51:33;;;;;;;20.27;6.83;;;;;;;18.73;69.92;94825.41;5074102;28;20955;-78
2023/10/22 06:54:00;;;;;;;18.93;7.47;;;;;;;18.87;67.75;94818.47;5074310;28;20443;-78
2023/10/22 06:56:27;;;;;;;13.80;6.30;;;;;;;19.05;66.88;94820.75;5074420;28;20484;-78
2023/10/22 06:58:54;;;;;;;13.23;6.50;;;;;;;19.22;65.59;94832.88;5074188;28;20457;-78
2023/10/22 07:01:20;;;;;;;11.50;6.90;;;;;;;19.45;65.79;94843.41;5073989;28;20497;-78
2023/10/22 07:03:47;;;;;;;18.23;7.70;;;;;;;19.59;64.61;94829.25;5073675;28;20822;-78
2023/10/22 07:06:14;;;;;;;8.50;5.53;;;;;;;19.74;66.03;94838.06;5073932;28;20789;-78
2023/10/22 07:08:43;;;;;;;14.83;7.10;;;;;;;19.90;66.17;94838.81;5073922;28;20445;-78
2023/10/22 07:11:09;;;;;;;17.23;6.40;;;;;;;19.94;64.14;94832.94;5074103;28;20482;-78
2023/10/22 07:13:36;;;;;;;17.17;7.20;;;;;;;20.05;63.26;94826.28;5055289;28;20502;-78
2023/10/22 07:16:03;;;;;;;11.53;6.80;;;;;;;20.22;64.64;94824.19;5073430;28;20474;-78
2023/10/22 07:18:30;;;;;;;17.27;6.63;;;;;;;20.36;64.00;94832.13;5055426;28;20448;-78
2023/10/22 07:20:57;;;;;;;15.40;6.30;;;;;;;20.47;62.82;94840.66;5073056;28;20490;-78
2023/10/22 07:23:24;;;;;;;15.23;6.50;;;;;;;20.53;63.66;94831.88;5073874;28;20773;-78
2023/10/22 07:25:56;;;;;;;9.93;6.00;;;;;;;20.74;68.04;94847.84;5073680;28;20516;-78
2023/10/22 07:28:22;;;;;;;25.17;7.50;;;;;;;20.80;64.64;94835.56;5073596;28;20939;-78
2023/10/22 07:30:50;;;;;;;12.50;6.97;;;;;;;20.68;61.82;94822.78;5073372;28;20449;-78
2023/10/22 07:33:17;;;;;;;21.57;6.60;;;;;;;20.69;64.89;94839.59;5073675;28;20814;-77
2023/10/22 07:35:53;;;;;;;13.00;6.70;;;;;;;20.86;63.49;94826.81;5073319;28;20908;-78
2023/10/22 07:38:20;;;;;;;16.03;7.10;;;;;;;20.99;63.48;94833.06;5038032;28;20433;-78
2023/10/22 07:40:47;;;;;;;30.63;8.30;;;;;;;21.11;63.89;94836.03;5073562;28;20539;-78
2023/10/22 07:43:15;;;;;;;15.80;7.13;;;;;;;21.24;62.74;94819.28;5073473;28;20442;-78
2023/10/22 07:45:42;;;;;;;21.93;7.67;;;;;;;21.33;61.90;94812.75;5073103;28;20436;-78
2023/10/22 07:48:09;;;;;;;17.27;6.37;;;;;;;21.44;62.52;94811.38;5073309;28;20472;-78
2023/10/22 07:50:36;;;;;;;17.83;7.10;;;;;;;21.55;59.45;94810.81;5073439;28;20486;-78
2023/10/22 07:53:02;;;;;;;21.10;6.90;;;;;;;21.60;58.78;94806.50;5073205;28;20445;-78
2023/10/22 07:55:29;;;;;;;11.20;6.13;;;;;;;21.62;59.49;94801.78;5073230;28;20445;-78
2023/10/22 07:57:56;;;;;;;13.60;6.17;;;;;;;21.67;61.25;94811.84;5073349;28;20444;-78
2023/10/22 08:00:24;;;;;;;12.87;6.00;;;;;;;21.78;59.71;94805.13;5073307;28;20438;-78
2023/10/22 08:02:51;;;;;;;13.37;6.20;;;;;;;21.81;60.85;94821.59;5072847;28;20979;-78
2023/10/22 08:05:17;;;;;;;12.10;6.90;;;;;;;21.88;59.15;94800.22;5072913;28;20457;-78
2023/10/22 08:07:44;;;;;;;15.20;6.33;;;;;;;21.99;61.31;94807.66;5072930;28;20501;-77
2023/10/22 08:10:12;;;;;;;14.10;6.40;;;;;;;22.19;60.66;94802.38;5072964;28;20822;-77
2023/10/22 08:12:39;;;;;;;13.07;8.20;;;;;;;22.39;59.06;94803.22;5072645;28;20495;-77
2023/10/22 08:15:07;;;;;;;14.47;6.73;;;;;;;22.24;56.64;94789.22;5073003;28;20475;-77
2023/10/22 08:17:35;;;;;;;12.73;6.13;;;;;;;22.35;57.75;94799.31;5072660;28;20479;-78
2023/10/22 08:20:01;;;;;;;15.43;7.60;;;;;;;22.56;57.33;94787.59;5072880;28;20443;-78
2023/10/22 08:22:28;;;;;;;16.10;6.20;;;;;;;22.67;55.46;94778.13;5072887;28;21000;-78
2023/10/22 08:24:55;;;;;;;17.10;7.17;;;;;;;22.74;55.58;94785.09;5072699;28;20449;-78
2023/10/22 08:27:22;;;;;;;11.80;6.53;;;;;;;22.78;56.73;94777.47;5072715;28;20450;-78
2023/10/22 08:29:49;;;;;;;13.37;7.50;;;;;;;22.66;54.97;94788.00;5072303;28;21178;-78
2023/10/22 08:32:15;;;;;;;16.13;7.13;;;;;;;22.58;55.95;94774.03;5074225;28;20441;-78
2023/10/22 08:34:43;;;;;;;17.40;7.57;;;;;;;22.47;55.67;94780.78;5076565;28;20502;-77
2023/10/22 08:37:11;;;;;;;17.40;6.63;;;;;;;22.51;55.63;94785.53;5077012;28;20435;-77
2023/10/22 08:39:38;;;;;;;18.50;7.37;;;;;;;22.59;55.48;94786.38;5076820;28;20499;-77
2023/10/22 08:42:09;;;;;;;19.93;7.17;;;;;;;22.66;56.65;94779.97;5076731;28;20835;-77
2023/10/22 08:44:44;;;;;;;13.03;7.50;;;;;;;22.68;55.26;94777.91;5076425;28;20450;-77
2023/10/22 08:47:11;;;;;;;10.37;6.30;;;;;;;22.65;55.03;94774.84;5076431;28;20451;-77
2023/10/22 08:49:40;;;;;;;11.63;6.20;;;;;;;22.84;55.81;94774.84;5076420;28;20448;-77
2023/10/22 08:52:09;;;;;;;9.93;6.33;;;;;;;23.06;55.24;94774.59;5076398;28;20439;-77
2023/10/22 08:54:36;;;;;;;13.80;5.93;;;;;;;23.23;51.87;94762.41;5076371;28;20450;-76
2023/10/22 08:57:04;;;;;;;17.10;6.10;;;;;;;23.24;52.42;94769.41;5076521;28;20450;-76
2023/10/22 08:59:31;;;;;;;16.03;6.30;;;;;;;23.20;52.33;94756.66;5076508;28;20437;-77
2023/10/22 09:01:57;;;;;;;16.57;6.77;;;;;;;23.22;52.66;94765.28;5076554;28;20478;-78
2023/10/22 09:04:25;;;;;;;12.30;7.03;;;;;;;23.33;52.31;94752.06;5057141;28;20446;-78
2023/10/22 09:06:53;;;;;;;13.47;6.70;;;;;;;23.44;52.67;94762.13;5076251;28;20446;-78
2023/10/22 09:09:35;;;;;;;14.50;6.70;;;;;;;23.39;52.09;94763.75;5075745;28;20482;-78
2023/10/22 09:12:03;;;;;;;14.10;6.87;;;;;;;23.45;53.11;94750.38;5076180;28;20442;-78
2023/10/22 09:14:30;;;;;;;14.43;6.57;;;;;;;23.38;52.32;94752.22;5075775;28;20443;-78
2023/10/22 09:16:57;;;;;;;12.37;5.87;;;;;;;23.49;52.95;94746.22;5076029;28;20892;-78
2023/10/22 09:19:37;;;;;;;22.23;7.17;;;;;;;23.52;51.57;94770.94;5076100;28;20457;-78
2023/10/22 09:22:05;;;;;;;13.10;6.20;;;;;;;23.70;52.76;94768.41;5040439;28;20507;-78
2023/10/22 09:24:35;;;;;;;13.20;6.20;;;;;;;23.81;51.55;94765.06;5075938;28;20546;-78
2023/10/22 09:27:03;;;;;;;20.07;4.97;;;;;;;24.06;49.38;94746.34;5075879;28;20520;-79
2023/10/22 09:29:31;;;;;;;15.43;6.67;;;;;;;24.14;50.76;94739.91;5075817;28;20947;-78
2023/10/22 09:31:59;;;;;;;15.03;6.23;;;;;;;24.34;50.41;94728.03;5057185;28;20785;-77
2023/10/22 09:34:32;;;;;;;26.33;5.67;;;;;;;24.50;47.09;94747.28;5075618;28;20452;-78
2023/10/22 09:36:59;;;;;;;22.17;8.90;;;;;;;24.78;45.43;94736.91;5075272;28;20444;-78
2023/10/22 09:39:37;;;;;;;17.00;8.23;;;;;;;25.07;45.43;94743.44;5075765;28;20447;-78
2023/10/22 09:42:05;;;;;;;20.70;7.80;;;;;;;25.32;42.65;94729.97;5075594;28;20484;-79
2023/10/22 09:44:32;;;;;;;14.77;6.80;;;;;;;25.54;42.68;94727.63;5075043;28;20895;-78
2023/10/22 09:47:01;;;;;;;18.67;5.53;;;;;;;25.75;42.77;94723.66;5075310;28;20481;-79
2023/10/22 09:49:29;;;;;;;8.93;4.90;;;;;;;25.92;41.65;94714.72;5075717;28;20469;-78
2023/10/22 09:51:59;;;;;;;11.80;4.90;;;;;;;26.09;41.02;94706.81;5075189;28;21018;-77
2023/10/22 09:54:35;;;;;;;15.93;6.87;;;;;;;26.28;40.54;94701.34;5075405;28;20483;-78
2023/10/22 09:57:08;;;;;;;17.90;6.90;;;;;;;26.40;39.32;94688.78;5074774;28;20841;-78
2023/10/22 09:59:35;;;;;;;21.63;6.17;;;;;;;26.41;39.44;94696.59;5075171;28;20942;-78
2023/10/22 10:02:04;;;;;;;19.50;6.27;;;;;;;26.47;39.33;94690.28;5075050;28;20489;-75
2023/10/22 10:04:34;;;;;;;17.60;6.00;;;;;;;26.55;39.60;94692.63;5075168;28;20506;-80
2023/10/22 10:07:04;;;;;;;13.10;5.60;;;;;;;26.62;40.21;94681.75;5074824;28;20479;-79
2023/10/22 10:09:32;;;;;;;18.10;6.23;;;;;;;26.77;39.26;94678.56;5075199;28;20473;-75
2023/10/22 10:12:01;;;;;;;19.90;6.73;;;;;;;26.83;38.51;94683.84;5074720;28;20483;-75
2023/10/22 10:14:45;;;;;;;26.47;7.27;;;;;;;26.86;38.17;94679.84;5074672;28;20937;-75
2023/10/22 10:17:13;;;;;;;12.90;5.70;;;;;;;26.89;37.92;94676.72;5039255;28;20437;-76
2023/10/22 10:19:40;;;;;;;17.40;5.70;;;;;;;26.82;37.75;94670.59;5074858;28;20445;-75
2023/10/22 10:22:07;;;;;;;19.90;7.00;;;;;;;26.85;38.58;94684.41;5074721;28;20488;-74
2023/10/22 10:24:35;;;;;;;18.87;6.43;;;;;;;26.85;37.98;94673.66;5074492;28;20441;-80
2023/10/22 10:27:23;;;;;;;25.57;6.30;;;;;;;26.80;37.73;94672.72;5075070;28;20441;-79
2023/10/22 10:30:17;;;;;;;30.37;6.40;;;;;;;26.71;37.42;94674.97;5073954;28;20449;-77
2023/10/22 10:32:45;;;;;;;22.30;8.27;;;;;;;26.66;38.42;94661.41;5074264;28;20445;-77
2023/10/22 10:35:13;;;;;;;25.63;6.60;;;;;;;26.71;38.31;94666.06;5074560;28;20950;-76
2023/10/22 10:37:40;;;;;;;21.10;6.40;;;;;;;26.65;38.05;94648.16;5055609;28;20477;-77
2023/10/22 10:40:08;;;;;;;38.73;6.90;;;;;;;26.61;38.58;94637.06;5074437;28;20437;-77
2023/10/22 10:42:51;;;;;;;22.77;6.50;;;;;;;26.70;38.10;94646.41;5055510;28;20473;-78
2023/10/22 10:45:19;;;;;;;22.53;6.80;;;;;;;26.75;38.80;94643.00;5069159;28;20495;-77
2023/10/22 10:47:46;;;;;;;13.73;4.93;;;;;;;26.83;38.40;94648.00;5054455;28;20511;-77
2023/10/22 10:50:19;;;;;;;17.40;6.23;;;;;;;26.90;37.78;94639.84;5056907;28;20456;-77
2023/10/22 10:53:02;;;;;;;21.50;6.40;;;;;;;26.99;37.72;94644.63;5073243;28;20459;-77
2023/10/22 10:55:36;;;;;;;26.70;6.23;;;;;;;27.05;37.30;94650.94;5070449;28;20826;-78
2023/10/22 10:58:03;;;;;;;19.10;6.60;;;;;;;27.02;37.99;94641.47;5074642;28;20444;-78
2023/10/22 11:00:32;;;;;;;27.13;6.73;;;;;;;26.96;38.23;94641.56;5073959;28;20928;-78
2023/10/22 11:03:01;;;;;;;24.30;6.20;;;;;;;26.98;38.67;94639.44;5073889;28;20488;-78
2023/10/22 11:05:39;;;;;;;17.43;6.47;;;;;;;26.98;37.88;94647.53;5073686;28;20468;-78
2023/10/22 11:08:06;;;;;;;28.73;5.93;;;;;;;27.00;38.27;94635.50;5088601;28;20440;-78
2023/10/22 11:10:33;;;;;;;18.17;6.60;;;;;;;27.11;38.49;94642.72;5073693;28;20498;-77
2023/10/22 11:13:05;;;;;;;15.50;6.77;;;;;;;27.04;38.47;94633.97;5073768;28;20848;-78
2023/10/22 11:15:35;;;;;;;20.77;6.63;;;;;;;26.92;38.62;94640.41;5073711;28;20468;-78
2023/10/22 11:18:03;;;;;;;14.67;5.57;;;;;;;26.68;38.51;94632.34;5054796;28;20448;-78
2023/10/22 11:20:30;;;;;;;31.80;5.87;;;;;;;26.65;39.22;94642.78;5073253;28;20443;-77
2023/10/22 11:22:57;;;;;;;16.20;6.07;;;;;;;26.47;39.93;94628.38;5073198;28;20575;-77
2023/10/22 11:25:26;;;;;;;22.47;7.50;;;;;;;26.46;40.33;94650.97;5038180;28;20475;-78
2023/10/22 11:27:53;;;;;;;23.03;6.50;;;;;;;26.42;40.05;94639.03;5073024;28;20436;-78
2023/10/22 11:30:38;;;;;;;10.70;5.53;;;;;;;26.28;40.25;94651.03;5073209;28;20451;-77